Time;durP1;ratioP1;P1;durP2;ratioP2;P2;SDS_P1;SDS_P2;PMS_P1;PMS_P2;Temp;Humidity;BMP_temperature;BMP_pressure;BME280_temperature;BME280_humidity;BME280_pressure;Samples;Min_cycle;Max_cycle;Signal;HPM_P1;HPM_P2
2021/12/22 00:00:27;;;;;;;;;31.25;26.00;;;;;-1.23;78.45;101565.31;5048553;28;45685;-81
2021/12/22 00:02:53;;;;;;;;;22.75;19.00;;;;;-1.24;77.94;101572.22;5056679;28;46295;-81
2021/12/22 00:05:23;;;;;;;;;40.25;32.25;;;;;-1.26;78.56;101564.38;5058030;28;45548;-81
2021/12/22 00:07:51;;;;;;;;;26.25;19.50;;;;;-1.25;78.32;101563.53;5057762;28;45392;-80
2021/12/22 00:10:18;;;;;;;;;27.75;25.50;;;;;-1.28;78.59;101558.19;5058119;28;45280;-80
2021/12/22 00:12:46;;;;;;;;;36.25;29.00;;;;;-1.27;78.81;101570.34;5054784;28;45488;-81
2021/12/22 00:15:11;;;;;;;;;38.00;31.50;;;;;-1.30;78.73;101557.25;5053958;28;45378;-81
2021/12/22 00:17:37;;;;;;;;;32.00;23.75;;;;;-1.31;79.09;101558.06;5062627;28;46159;-82
2021/12/22 00:20:05;;;;;;;;;38.25;28.50;;;;;-1.30;78.57;101559.84;5056349;28;45467;-81
2021/12/22 00:22:31;;;;;;;;;38.75;25.75;;;;;-1.31;79.19;101542.50;5035326;28;46174;-81
2021/12/22 00:24:56;;;;;;;;;24.00;21.75;;;;;-1.29;79.03;101546.06;5049194;28;45513;-81
2021/12/22 00:27:22;;;;;;;;;26.50;20.00;;;;;-1.35;78.97;101531.91;5056785;28;45377;-81
2021/12/22 00:29:49;;;;;;;;;24.50;22.50;;;;;-1.28;79.08;101558.19;5072990;28;45266;-81
2021/12/22 00:32:17;;;;;;;;;29.50;23.75;;;;;-1.24;78.89;101554.03;5075809;28;47032;-80
2021/12/22 00:34:49;;;;;;;;;30.00;28.00;;;;;-1.20;79.08;101547.28;5061794;28;45334;-82
2021/12/22 00:37:18;;;;;;;;;28.00;24.00;;;;;-1.22;78.55;101541.13;5028032;28;45460;-81
2021/12/22 00:39:44;;;;;;;;;31.50;24.75;;;;;-1.19;79.18;101549.06;5041877;28;45382;-82
2021/12/22 00:42:14;;;;;;;;;28.50;24.00;;;;;-1.21;79.13;101543.81;5058050;28;45501;-81
2021/12/22 00:44:46;;;;;;;;;30.50;24.25;;;;;-1.29;78.97;101522.72;5061291;28;45362;-81
2021/12/22 00:47:12;;;;;;;;;29.25;23.75;;;;;-1.23;79.73;101547.13;5063231;28;45343;-81
2021/12/22 00:49:37;;;;;;;;;27.00;19.50;;;;;-1.22;79.28;101538.53;5050734;28;45394;-81
2021/12/22 00:52:03;;;;;;;;;34.00;24.00;;;;;-1.25;79.30;101542.75;5052635;28;45324;-82
2021/12/22 00:54:28;;;;;;;;;36.50;29.00;;;;;-1.29;79.12;101535.69;5059126;28;45721;-80
2021/12/22 00:57:00;;;;;;;;;29.50;27.25;;;;;-1.22;79.25;101547.22;5057737;28;45357;-81
2021/12/22 00:59:26;;;;;;;;;35.50;28.50;;;;;-1.22;79.23;101536.81;5051755;28;45625;-81
2021/12/22 01:01:52;;;;;;;;;30.25;28.00;;;;;-1.15;79.27;101548.38;5040445;28;46313;-82
2021/12/22 01:04:18;;;;;;;;;31.25;29.25;;;;;-1.23;79.16;101523.78;5053387;28;45340;-82
2021/12/22 01:06:44;;;;;;;;;31.75;27.00;;;;;-1.11;78.92;101551.16;5063300;28;45726;-81
2021/12/22 01:09:09;;;;;;;;;27.50;22.75;;;;;-1.10;78.97;101541.66;5040004;28;45441;-82
2021/12/22 01:11:35;;;;;;;;;30.75;25.50;;;;;-1.07;78.77;101545.28;5048024;28;46029;-81
2021/12/22 01:14:03;;;;;;;;;25.25;21.50;;;;;-1.05;79.18;101544.47;5059015;28;45298;-81
2021/12/22 01:16:30;;;;;;;;;21.75;19.00;;;;;-1.05;78.89;101549.66;5065712;28;45333;-81
2021/12/22 01:18:59;;;;;;;;;25.00;23.00;;;;;-1.04;78.79;101552.31;5057713;28;45674;-81
2021/12/22 01:21:38;;;;;;;;;27.00;24.00;;;;;-1.02;78.44;101553.25;5056931;28;45971;-81
2021/12/22 01:26:45;;;;;;;;;22.50;18.25;;;;;-1.05;78.39;101547.94;5057917;28;45492;-81
2021/12/22 01:29:12;;;;;;;;;33.50;24.00;;;;;-1.12;77.77;101528.63;5058416;28;45412;-81
2021/12/22 01:31:40;;;;;;;;;30.75;28.50;;;;;-1.02;78.22;101535.09;5056035;28;46023;-81
2021/12/22 01:34:05;;;;;;;;;22.25;19.75;;;;;-1.00;78.21;101530.88;5065607;28;45332;-80
2021/12/22 01:36:31;;;;;;;;;28.25;23.00;;;;;-1.02;78.11;101529.88;5068688;28;45873;-82
2021/12/22 01:38:56;;;;;;;;;24.75;21.75;;;;;-0.97;78.09;101530.09;5062195;28;44811;-82
2021/12/22 01:41:23;;;;;;;;;25.75;21.50;;;;;-0.97;78.21;101528.41;5064437;28;45591;-81
2021/12/22 01:43:49;;;;;;;;;28.50;24.75;;;;;-0.94;78.05;101533.72;5060092;28;45337;-80
2021/12/22 01:49:14;;;;;;;;;41.00;30.75;;;;;-0.93;78.20;101529.41;5060802;28;45552;-81
2021/12/22 01:51:40;;;;;;;;;38.00;34.00;;;;;-0.95;78.37;101526.75;5048713;28;45385;-81
2021/12/22 01:54:42;;;;;;;;;36.00;29.00;;;;;-1.01;78.64;101513.50;5066597;28;45286;-82
2021/12/22 01:57:11;;;;;;;;;40.00;31.25;;;;;-1.06;79.13;101522.81;5064823;28;45435;-81
2021/12/22 01:59:42;;;;;;;;;36.75;33.75;;;;;-1.07;78.92;101526.22;5063448;28;45359;-81
2021/12/22 02:02:10;;;;;;;;;31.50;21.50;;;;;-1.10;79.10;101526.97;5063571;28;45416;-80
2021/12/22 02:04:37;;;;;;;;;39.00;28.50;;;;;-1.04;79.05;101526.34;5060937;28;45334;-80
2021/12/22 02:07:03;;;;;;;;;32.25;25.00;;;;;-1.05;79.06;101532.34;5055607;28;45457;-82
2021/12/22 02:12:13;;;;;;;;;41.75;30.25;;;;;-1.04;79.29;101525.47;5061564;28;45332;-82
2021/12/22 02:14:42;;;;;;;;;28.50;24.50;;;;;-1.04;78.91;101515.97;5063849;28;45331;-82
2021/12/22 02:17:10;;;;;;;;;30.00;27.00;;;;;-1.05;78.93;101514.19;5062257;28;45386;-80
2021/12/22 02:19:38;;;;;;;;;36.00;29.75;;;;;-1.10;78.95;101505.34;5053716;28;45229;-80
2021/12/22 02:22:08;;;;;;;;;35.50;28.00;;;;;-0.99;79.25;101522.22;5037728;28;45506;-81
2021/12/22 02:24:34;;;;;;;;;47.25;36.50;;;;;-0.95;79.37;101523.28;5050044;28;45456;-81
2021/12/22 02:27:05;;;;;;;;;37.00;31.50;;;;;-0.95;78.84;101521.53;5057514;28;45402;-82
2021/12/22 02:29:39;;;;;;;;;35.25;30.75;;;;;-0.91;79.18;101528.66;5058944;28;45524;-82
2021/12/22 02:32:51;;;;;;;;;42.75;32.75;;;;;-0.89;78.44;101531.31;5062975;28;46509;-81
2021/12/22 02:35:12;;;;;;;;;34.75;28.75;;;;;-0.92;78.21;101526.00;5057784;28;45256;-82
2021/12/22 02:37:43;;;;;;;;;41.00;34.25;;;;;-0.94;78.56;101528.53;5048608;28;45503;-81
2021/12/22 02:40:14;;;;;;;;;43.25;31.50;;;;;-0.93;78.19;101513.81;5037055;28;45422;-81
2021/12/22 02:42:41;;;;;;;;;29.25;25.00;;;;;-0.95;78.16;101511.16;5058981;28;45475;-83
2021/12/22 02:45:15;;;;;;;;;30.25;28.00;;;;;-0.92;78.55;101510.41;5056908;28;45419;-81
2021/12/22 02:47:41;;;;;;;;;35.50;28.00;;;;;-0.92;78.35;101511.28;5050004;28;45679;-81
2021/12/22 02:50:09;;;;;;;;;31.00;25.00;;;;;-0.87;78.46;101521.88;5057157;28;45391;-82
2021/12/22 02:52:48;;;;;;;;;30.25;25.75;;;;;-0.85;78.39;101501.16;5059417;28;45984;-81
2021/12/22 02:55:13;;;;;;;;;15.50;11.50;;;;;-0.82;78.10;101511.66;5058027;28;45409;-81
2021/12/22 02:57:44;;;;;;;;;32.75;25.75;;;;;-0.85;78.18;101512.44;5057105;28;45459;-81
2021/12/22 03:00:29;;;;;;;;;32.00;27.50;;;;;-0.83;77.97;101502.13;5058755;28;45409;-81
2021/12/22 03:05:21;;;;;;;;;31.75;26.50;;;;;-0.82;78.27;101499.59;5059659;28;45732;-80
2021/12/22 03:07:48;;;;;;;;;31.50;24.25;;;;;-0.79;78.48;101504.00;5058524;28;45464;-81
2021/12/22 03:10:17;;;;;;;;;34.50;26.50;;;;;-0.83;78.20;101528.09;5058197;28;45373;-82
2021/12/22 03:12:43;;;;;;;;;39.50;31.25;;;;;-0.81;78.49;101518.66;5049107;28;47202;-82
2021/12/22 03:15:10;;;;;;;;;28.75;26.00;;;;;-0.83;78.22;101525.50;5060707;28;45339;-81
2021/12/22 03:17:37;;;;;;;;;44.75;31.50;;;;;-0.92;78.50;101507.81;5059279;28;45348;-82
2021/12/22 03:20:06;;;;;;;;;40.50;32.50;;;;;-0.92;78.59;101506.09;5055925;28;45776;-80
2021/12/22 03:22:31;;;;;;;;;32.50;27.75;;;;;-0.91;78.54;101496.63;5057904;28;46485;-82
2021/12/22 03:24:58;;;;;;;;;30.50;27.25;;;;;-0.88;78.06;101516.59;5075002;28;45605;-82
2021/12/22 03:27:24;;;;;;;;;38.00;30.75;;;;;-0.89;78.50;101510.53;5057380;28;45358;-81
2021/12/22 03:29:51;;;;;;;;;38.75;27.25;;;;;-0.88;78.06;101514.00;5060107;28;45465;-80
2021/12/22 03:32:17;;;;;;;;;27.25;18.50;;;;;-0.98;78.22;101515.34;5061180;28;45696;-81
2021/12/22 03:34:44;;;;;;;;;47.25;35.50;;;;;-1.14;78.54;101486.16;5056021;28;45345;-80
2021/12/22 03:37:12;;;;;;;;;33.50;30.50;;;;;-0.99;79.01;101509.25;5058973;28;45325;-81
2021/12/22 03:39:38;;;;;;;;;40.00;30.00;;;;;-1.00;78.41;101496.22;5061227;28;45691;-82
2021/12/22 03:42:07;;;;;;;;;30.75;27.25;;;;;-0.97;78.29;101501.53;5073233;28;45569;-81
2021/12/22 03:44:33;;;;;;;;;23.25;20.50;;;;;-0.97;78.23;101497.25;5079623;27;44795;-81
2021/12/22 03:47:00;;;;;;;;;44.00;29.00;;;;;-0.96;78.08;101491.22;5055209;28;45395;-82
2021/12/22 03:49:26;;;;;;;;;39.75;33.25;;;;;-0.97;78.29;101497.25;5049239;28;45474;-82
2021/12/22 03:51:51;;;;;;;;;41.00;36.50;;;;;-0.93;77.93;101506.94;5063912;28;45333;-81
2021/12/22 03:54:17;;;;;;;;;48.00;43.00;;;;;-0.90;77.98;101514.84;5056016;28;45400;-81
2021/12/22 03:56:42;;;;;;;;;33.50;28.50;;;;;-0.87;78.03;101508.00;5072600;28;45660;-82
2021/12/22 03:59:07;;;;;;;;;42.50;36.25;;;;;-0.86;77.68;101499.41;5059164;28;45511;-82
2021/12/22 04:01:36;;;;;;;;;42.00;32.50;;;;;-0.81;77.75;101503.06;5059290;28;45615;-81
2021/12/22 04:04:08;;;;;;;;;33.00;29.00;;;;;-0.81;77.41;101503.94;5061075;28;45550;-82
2021/12/22 04:06:33;;;;;;;;;45.25;37.50;;;;;-0.77;77.46;101507.56;5047712;28;45347;-82
2021/12/22 04:08:59;;;;;;;;;37.00;31.50;;;;;-0.80;77.22;101499.66;5039153;28;45546;-82
2021/12/22 04:11:24;;;;;;;;;41.25;30.25;;;;;-0.78;77.51;101498.88;5050489;28;46091;-82
2021/12/22 04:13:50;;;;;;;;;37.50;30.75;;;;;-0.85;77.03;101485.59;5058392;28;45497;-83
2021/12/22 04:16:16;;;;;;;;;29.25;27.00;;;;;-0.97;77.18;101453.13;5047365;28;45321;-81
2021/12/22 04:18:41;;;;;;;;;36.75;34.00;;;;;-1.02;77.46;101445.97;5058411;28;45474;-80
2021/12/22 04:21:07;;;;;;;;;35.00;26.25;;;;;-0.84;77.95;101482.19;5049815;28;46388;-81
2021/12/22 04:23:32;;;;;;;;;22.50;22.50;;;;;-0.84;77.57;101471.78;5067562;28;45464;-81
2021/12/22 04:25:57;;;;;;;;;35.25;31.00;;;;;-0.78;77.38;101485.00;5055607;28;45426;-82
2021/12/22 04:28:23;;;;;;;;;29.25;27.75;;;;;-0.84;77.88;101476.97;5060576;28;45400;-82
2021/12/22 04:30:50;;;;;;;;;30.00;28.50;;;;;-0.74;77.46;101481.72;5059542;28;47554;-81
2021/12/22 04:33:19;;;;;;;;;43.75;35.00;;;;;-0.81;77.00;101490.97;5062428;28;45566;-81
2021/12/22 04:35:44;;;;;;;;;26.25;18.00;;;;;-0.86;76.65;101496.81;5059208;28;45488;-81
2021/12/22 04:38:10;;;;;;;;;31.25;30.00;;;;;-0.95;77.34;101484.34;5060093;28;45499;-81
2021/12/22 04:40:35;;;;;;;;;30.50;25.00;;;;;-0.94;77.23;101497.38;5046900;28;46024;-82
2021/12/22 04:43:02;;;;;;;;;33.25;26.00;;;;;-0.97;77.57;101492.06;5059016;28;45283;-82
2021/12/22 04:45:27;;;;;;;;;41.25;28.50;;;;;-0.94;77.27;101484.41;5059930;28;45326;-81
2021/12/22 04:47:52;;;;;;;;;33.50;29.50;;;;;-1.00;77.08;101497.13;5059326;28;45400;-76
2021/12/22 04:50:20;;;;;;;;;36.75;28.00;;;;;-1.01;77.62;101503.13;5045328;28;46042;-75
2021/12/22 04:52:54;;;;;;;;;35.75;30.00;;;;;-1.03;77.64;101496.09;5058746;28;45381;-76
2021/12/22 04:55:20;;;;;;;;;29.25;21.00;;;;;-0.98;77.36;101499.78;5061951;28;45402;-76
2021/12/22 04:57:45;;;;;;;;;35.50;27.50;;;;;-0.98;77.48;101510.16;5070794;28;45456;-75
2021/12/22 05:00:15;;;;;;;;;35.00;28.00;;;;;-1.00;77.79;101507.50;5058487;28;45531;-76
2021/12/22 05:02:41;;;;;;;;;36.25;25.50;;;;;-1.00;77.31;101507.50;5057838;28;45465;-76
2021/12/22 05:05:07;;;;;;;;;31.25;27.25;;;;;-0.98;77.56;101505.84;5055554;28;45438;-76
2021/12/22 05:07:32;;;;;;;;;35.50;28.00;;;;;-0.97;77.66;101497.25;5055817;28;45531;-75
2021/12/22 05:09:57;;;;;;;;;24.75;19.75;;;;;-0.97;77.34;101499.84;5053369;28;46341;-77
2021/12/22 05:12:24;;;;;;;;;34.50;34.50;;;;;-0.97;77.09;101497.25;5057335;28;45384;-76
2021/12/22 05:14:50;;;;;;;;;27.75;19.25;;;;;-1.03;77.26;101464.94;5057185;28;45407;-75
2021/12/22 05:17:25;;;;;;;;;30.50;27.25;;;;;-0.99;77.21;101459.06;5055406;28;45537;-76
2021/12/22 05:19:50;;;;;;;;;30.25;24.25;;;;;-0.94;77.26;101462.72;5055584;28;45510;-76
2021/12/22 05:22:15;;;;;;;;;28.25;26.75;;;;;-0.92;77.23;101464.56;5056867;28;45499;-75
2021/12/22 05:24:41;;;;;;;;;33.25;28.50;;;;;-0.90;77.13;101465.53;5072450;28;45740;-77
2021/12/22 05:27:11;;;;;;;;;31.75;26.25;;;;;-0.92;76.86;101469.75;5060761;28;45520;-77
2021/12/22 05:29:38;;;;;;;;;36.25;31.50;;;;;-0.89;76.79;101479.38;5048938;28;45512;-76
2021/12/22 05:32:04;;;;;;;;;25.75;20.00;;;;;-0.93;76.51;101468.00;5057197;28;45777;-76
2021/12/22 05:34:30;;;;;;;;;41.75;33.00;;;;;-0.92;76.22;101463.69;5043425;28;45405;-75
2021/12/22 05:36:55;;;;;;;;;32.50;25.75;;;;;-0.92;76.23;101468.88;5037711;28;45616;-76
2021/12/22 05:39:21;;;;;;;;;32.00;26.75;;;;;-0.96;76.03;101472.16;5052924;28;47180;-76
2021/12/22 05:41:47;;;;;;;;;36.00;24.50;;;;;-0.95;76.54;101485.22;5063687;28;45358;-77
2021/12/22 05:44:14;;;;;;;;;30.00;28.00;;;;;-0.94;76.31;101483.47;5057406;28;45620;-76
2021/12/22 05:46:39;;;;;;;;;33.75;28.50;;;;;-1.01;76.21;101477.16;5037274;28;45429;-76
2021/12/22 05:49:05;;;;;;;;;37.75;27.50;;;;;-1.01;76.53;101474.56;5045165;28;45516;-76
2021/12/22 05:51:33;;;;;;;;;35.50;28.50;;;;;-0.99;76.81;101485.88;5058057;28;45322;-75
2021/12/22 05:53:58;;;;;;;;;36.00;26.75;;;;;-1.02;76.75;101470.19;5058241;28;45681;-77
2021/12/22 05:56:27;;;;;;;;;37.75;28.50;;;;;-1.00;76.88;101481.53;5058095;28;45444;-76
2021/12/22 05:58:52;;;;;;;;;34.25;22.00;;;;;-1.00;76.93;101488.44;5054540;28;45435;-76
2021/12/22 06:01:19;;;;;;;;;48.25;30.25;;;;;-0.99;77.13;101493.69;5055650;28;45445;-75
2021/12/22 06:03:44;;;;;;;;;36.00;25.25;;;;;-0.98;76.76;101499.78;5054655;28;45427;-76
2021/12/22 06:06:11;;;;;;;;;36.50;32.75;;;;;-1.03;76.73;101497.00;5056159;28;45318;-76
2021/12/22 06:08:36;;;;;;;;;26.50;20.50;;;;;-1.02;76.47;101503.94;5045683;28;45549;-77
2021/12/22 06:11:01;;;;;;;;;30.00;24.00;;;;;-1.00;76.24;101499.72;5055240;28;45531;-77
2021/12/22 06:13:27;;;;;;;;;27.75;27.25;;;;;-1.00;76.24;101491.94;5039834;28;45496;-76
2021/12/22 06:15:52;;;;;;;;;28.50;24.00;;;;;-1.06;76.42;101491.66;5056226;28;45461;-76
2021/12/22 06:18:18;;;;;;;;;25.25;20.50;;;;;-1.05;76.41;101488.22;5052374;28;46324;-77
2021/12/22 06:20:43;;;;;;;;;31.00;23.00;;;;;-1.12;76.42;101487.09;5047108;28;45607;-76
2021/12/22 06:23:08;;;;;;;;;21.75;20.00;;;;;-1.11;76.62;101485.38;5056626;28;45538;-75
2021/12/22 06:25:34;;;;;;;;;31.25;24.75;;;;;-1.11;76.63;101494.06;5054854;28;45436;-76
2021/12/22 06:27:59;;;;;;;;;38.00;33.50;;;;;-1.09;76.70;101492.41;5059057;28;45551;-82
2021/12/22 06:30:26;;;;;;;;;36.75;26.50;;;;;-1.22;76.88;101468.50;5039601;28;45432;-80
2021/12/22 06:32:52;;;;;;;;;32.00;27.00;;;;;-1.12;76.96;101488.81;5047469;28;45480;-80
2021/12/22 06:35:17;;;;;;;;;35.75;30.00;;;;;-1.14;76.79;101485.25;5038785;28;45488;-81
2021/12/22 06:37:44;;;;;;;;;29.50;20.50;;;;;-1.17;76.76;101496.41;5039695;28;46331;-81
2021/12/22 06:40:11;;;;;;;;;33.75;30.75;;;;;-1.25;76.75;101485.69;5056346;28;45448;-82
2021/12/22 06:42:38;;;;;;;;;39.00;33.75;;;;;-1.21;77.18;101489.31;5038430;28;45458;-82
2021/12/22 06:45:05;;;;;;;;;38.25;29.00;;;;;-1.25;77.12;101490.88;5047049;28;45436;-81
2021/12/22 06:47:32;;;;;;;;;32.75;24.75;;;;;-1.26;77.43;101489.13;5072117;28;47456;-81
2021/12/22 06:49:57;;;;;;;;;32.75;25.00;;;;;-1.25;76.57;101503.84;5058624;28;45464;-82
2021/12/22 06:52:23;;;;;;;;;20.75;18.75;;;;;-1.29;76.46;101499.38;5071835;28;45412;-75
2021/12/22 06:54:48;;;;;;;;;25.00;24.00;;;;;-1.31;76.40;101498.41;5054450;28;45390;-77
2021/12/22 06:57:16;;;;;;;;;26.50;22.00;;;;;-1.31;76.07;101516.56;5056302;28;45952;-75
2021/12/22 06:59:41;;;;;;;;;30.50;28.50;;;;;-1.31;76.46;101511.38;5056587;28;45521;-75
2021/12/22 07:02:07;;;;;;;;;29.50;26.00;;;;;-1.31;76.57;101506.19;5057941;28;45723;-76
2021/12/22 07:04:32;;;;;;;;;39.50;33.50;;;;;-1.34;76.56;101512.94;5056078;28;45373;-76
2021/12/22 07:06:57;;;;;;;;;37.25;28.75;;;;;-1.32;77.14;101512.22;5050701;28;46303;-76
2021/12/22 07:09:26;;;;;;;;;27.50;22.50;;;;;-1.37;76.89;101500.72;5050531;28;45318;-80
2021/12/22 07:11:53;;;;;;;;;26.50;21.50;;;;;-1.33;76.94;101497.44;5054613;28;45600;-78
2021/12/22 07:14:18;;;;;;;;;31.50;27.75;;;;;-1.30;76.83;101497.59;5055697;28;45318;-78
2021/12/22 07:16:46;;;;;;;;;38.00;27.75;;;;;-1.32;76.88;101487.94;5057405;28;46714;-76
2021/12/22 07:19:12;;;;;;;;;30.50;24.25;;;;;-1.33;77.18;101484.47;5055390;28;45279;-77
2021/12/22 07:21:38;;;;;;;;;30.50;21.75;;;;;-1.28;76.95;101497.66;5046751;28;45377;-75
2021/12/22 07:24:04;;;;;;;;;30.25;24.50;;;;;-1.29;76.45;101498.47;5056625;28;45595;-76
2021/12/22 07:26:30;;;;;;;;;32.25;29.75;;;;;-1.31;76.18;101494.91;5056090;28;45981;-78
2021/12/22 07:28:55;;;;;;;;;33.00;22.75;;;;;-1.32;76.59;101499.25;5056115;28;45431;-76
2021/12/22 07:31:21;;;;;;;;;30.00;22.75;;;;;-1.36;76.58;101502.50;5057033;28;45409;-77
2021/12/22 07:34:19;;;;;;;;;30.25;28.50;;;;;-1.39;77.10;101502.38;5055582;28;45508;-77
2021/12/22 07:37:09;;;;;;;;;32.75;27.25;;;;;-1.35;77.10;101506.88;5037335;28;46003;-76
2021/12/22 07:39:35;;;;;;;;;39.75;29.00;;;;;-1.35;77.04;101499.09;5060534;28;45452;-76
2021/12/22 07:42:00;;;;;;;;;27.25;18.50;;;;;-1.35;77.10;101501.69;5058481;28;45402;-76
2021/12/22 07:44:25;;;;;;;;;29.00;24.00;;;;;-1.34;77.03;101495.66;5051385;28;45480;-75
2021/12/22 07:46:51;;;;;;;;;34.25;19.25;;;;;-1.32;76.77;101496.63;5034044;28;46628;-77
2021/12/22 07:49:17;;;;;;;;;35.75;24.75;;;;;-1.32;76.73;101501.81;5045443;28;45499;-80
2021/12/22 07:51:42;;;;;;;;;38.25;30.00;;;;;-1.33;76.40;101487.06;5055414;28;45538;-82
2021/12/22 07:54:08;;;;;;;;;25.50;18.50;;;;;-1.31;76.88;101493.22;5073192;28;45319;-81
2021/12/22 07:56:33;;;;;;;;;51.75;35.50;;;;;-1.29;76.83;101498.47;5059656;28;45394;-81
2021/12/22 07:58:59;;;;;;;;;30.25;29.00;;;;;-1.25;76.50;101498.66;5059243;28;45647;-82
2021/12/22 08:01:24;;;;;;;;;24.75;20.00;;;;;-1.25;76.44;101488.28;5057264;28;45457;-77
2021/12/22 08:03:49;;;;;;;;;23.50;17.00;;;;;-1.19;76.29;101494.56;5047081;28;45508;-76
2021/12/22 08:06:15;;;;;;;;;36.50;29.75;;;;;-1.21;76.29;101497.09;5045794;28;45413;-76
2021/12/22 08:08:40;;;;;;;;;40.00;30.50;;;;;-1.24;76.54;101507.34;5053507;28;45427;-76
2021/12/22 08:11:06;;;;;;;;;30.50;24.00;;;;;-1.21;76.17;101509.19;5053388;28;45547;-77
2021/12/22 08:13:32;;;;;;;;;30.75;26.00;;;;;-1.31;76.34;101495.78;5052818;28;45400;-76
2021/12/22 08:15:57;;;;;;;;;37.75;30.25;;;;;-1.16;76.51;101510.25;5046806;28;47105;-75
2021/12/22 08:18:24;;;;;;;;;40.25;27.00;;;;;-1.14;76.63;101506.94;5036909;28;45446;-76
2021/12/22 08:20:50;;;;;;;;;32.00;27.00;;;;;-1.14;76.40;101511.22;5055347;28;45385;-78
2021/12/22 08:23:18;;;;;;;;;31.50;23.50;;;;;-1.16;76.21;101497.28;5054465;28;45481;-76
2021/12/22 08:25:45;;;;;;;;;26.00;23.75;;;;;-1.21;76.33;101493.63;5054972;28;46175;-76
2021/12/22 08:28:11;;;;;;;;;37.75;30.75;;;;;-1.35;76.60;101483.53;5054825;28;45575;-76
2021/12/22 08:30:37;;;;;;;;;44.00;35.50;;;;;-1.34;76.37;101485.28;5054918;28;45353;-76
2021/12/22 08:33:09;;;;;;;;;41.50;34.00;;;;;-1.32;77.14;101487.94;5055402;28;45476;-76
2021/12/22 08:38:50;;;;;;;;;36.00;22.50;;;;;-1.25;76.72;101490.00;5056216;28;45426;-76
2021/12/22 08:41:04;;;;;;;;;40.75;37.25;;;;;-1.14;76.80;101493.03;5040251;28;45500;-75
2021/12/22 08:43:30;;;;;;;;;31.00;25.50;;;;;-1.16;76.66;101485.19;5049625;28;45393;-77
2021/12/22 08:45:55;;;;;;;;;40.50;31.00;;;;;-1.07;76.37;101484.69;5049724;28;46307;-76
2021/12/22 08:48:20;;;;;;;;;45.50;33.75;;;;;-1.06;76.78;101489.09;5051977;28;45407;-75
2021/12/22 08:50:46;;;;;;;;;37.50;29.00;;;;;-1.02;75.90;101487.47;5057808;28;45388;-77
2021/12/22 08:53:11;;;;;;;;;28.25;25.25;;;;;-1.00;76.22;101476.34;5053548;28;45317;-75
2021/12/22 08:55:37;;;;;;;;;32.25;26.00;;;;;-1.06;76.69;101455.34;5044451;28;45455;-86
2021/12/22 08:58:02;;;;;;;;;28.50;24.75;;;;;-0.84;75.76;101479.56;5059158;28;45326;-75
2021/12/22 09:00:28;;;;;;;;;33.50;30.25;;;;;-0.91;75.45;101470.66;5054965;28;45419;-76
2021/12/22 09:02:53;;;;;;;;;29.25;23.75;;;;;-0.88;75.39;101475.97;5052968;28;45435;-75
2021/12/22 09:05:19;;;;;;;;;27.75;21.50;;;;;-0.86;75.17;101473.44;5056115;28;46018;-75
2021/12/22 09:07:44;;;;;;;;;41.75;33.00;;;;;-0.88;75.39;101464.69;5056321;28;45460;-75
2021/12/22 09:10:10;;;;;;;;;34.00;28.75;;;;;-0.84;75.16;101472.66;5056157;28;45465;-75
2021/12/22 09:12:35;;;;;;;;;36.50;31.75;;;;;-0.78;75.25;101472.03;5046895;28;45456;-75
2021/12/22 09:15:00;;;;;;;;;32.25;27.75;;;;;-0.82;75.46;101464.94;5057340;28;45604;-76
2021/12/22 09:17:26;;;;;;;;;39.25;31.75;;;;;-0.78;75.44;101472.03;5056890;28;45514;-75
2021/12/22 09:19:53;;;;;;;;;27.25;27.00;;;;;-0.78;75.50;101472.91;5056753;28;45484;-75
2021/12/22 09:22:19;;;;;;;;;33.75;31.00;;;;;-0.75;75.97;101477.34;5047101;28;45294;-75
2021/12/22 09:24:45;;;;;;;;;40.25;33.50;;;;;-0.81;75.53;101479.69;5036773;28;45575;-74
2021/12/22 09:27:11;;;;;;;;;36.75;34.75;;;;;-0.82;75.52;101465.84;5037755;28;45458;-75
2021/12/22 09:29:36;;;;;;;;;52.50;43.00;;;;;-0.75;75.42;101466.97;5053657;28;45606;-76
2021/12/22 09:32:04;;;;;;;;;39.00;28.25;;;;;-0.69;75.58;101467.22;5048488;28;45486;-74
2021/12/22 09:34:29;;;;;;;;;32.00;27.50;;;;;-0.60;75.32;101471.91;5051491;28;46204;-76
2021/12/22 09:36:55;;;;;;;;;35.50;29.00;;;;;-0.63;75.08;101457.06;5056753;28;45505;-76
2021/12/22 09:39:21;;;;;;;;;33.50;27.25;;;;;-0.56;75.09;101464.28;5050296;28;45431;-76
2021/12/22 09:41:47;;;;;;;;;48.50;36.75;;;;;-0.56;74.38;101473.78;5044503;28;45613;-75
2021/12/22 09:44:13;;;;;;;;;37.50;29.50;;;;;-0.47;74.84;101479.34;5049960;28;46246;-76
2021/12/22 09:46:40;;;;;;;;;33.50;28.50;;;;;-0.47;74.46;101481.94;5053399;28;45506;-76
2021/12/22 09:49:19;;;;;;;;;35.00;30.25;;;;;-0.50;74.61;101473.13;5042329;28;45675;-75
2021/12/22 09:54:28;;;;;;;;;52.75;34.25;;;;;-0.38;74.66;101486.59;5043569;28;45876;-76
2021/12/22 09:56:54;;;;;;;;;26.25;19.50;;;;;-0.36;74.12;101487.56;5059573;28;45488;-76
2021/12/22 09:59:20;;;;;;;;;42.50;37.00;;;;;-0.34;73.95;101501.50;5046164;28;45548;-75
2021/12/22 10:01:46;;;;;;;;;39.25;34.50;;;;;-0.33;74.08;101491.97;5045156;28;45608;-76
2021/12/22 10:04:16;;;;;;;;;41.00;33.25;;;;;-0.29;74.01;101489.59;5048727;28;45457;-80
2021/12/22 10:06:42;;;;;;;;;25.25;23.25;;;;;-0.23;73.87;101494.09;5055797;28;46036;-81
2021/12/22 10:09:07;;;;;;;;;44.50;37.75;;;;;-0.22;73.67;101486.38;5044596;28;45499;-81
2021/12/22 10:11:40;;;;;;;;;35.00;30.50;;;;;-0.19;73.49;101491.69;5051800;28;45501;-81
2021/12/22 10:14:20;;;;;;;;;58.25;41.00;;;;;-0.23;73.61;101495.00;5051099;28;45381;-81
2021/12/22 10:16:51;;;;;;;;;43.75;29.75;;;;;-0.26;73.46;101487.09;5069786;28;45578;-80
2021/12/22 10:19:17;;;;;;;;;39.75;33.25;;;;;-0.27;73.76;101481.84;5053665;28;45319;-80
2021/12/22 10:21:59;;;;;;;;;28.50;27.00;;;;;-0.20;73.91;101489.94;5049349;28;45554;-81
2021/12/22 10:24:39;;;;;;;;;43.50;36.50;;;;;-0.22;73.57;101486.38;5045318;28;46030;-81
2021/12/22 10:27:10;;;;;;;;;51.25;36.00;;;;;-0.23;73.58;101484.63;5048069;28;45636;-80
2021/12/22 10:29:36;;;;;;;;;48.25;36.00;;;;;-0.21;73.67;101487.28;5050691;28;45286;-81
2021/12/22 10:32:11;;;;;;;;;37.25;29.25;;;;;-0.10;73.52;101483.34;5050727;28;45421;-81
2021/12/22 10:34:57;;;;;;;;;26.00;21.00;;;;;-0.01;73.83;101480.22;5053509;28;46885;-82
2021/12/22 10:37:37;;;;;;;;;32.50;26.50;;;;;-0.04;73.34;101464.50;5045296;28;45480;-81
2021/12/22 10:40:21;;;;;;;;;34.25;30.50;;;;;0.08;73.07;101479.69;5053991;28;45460;-83
2021/12/22 10:42:47;;;;;;;;;35.75;30.25;;;;;0.02;72.88;101464.75;5050634;28;45466;-80
2021/12/22 10:45:15;;;;;;;;;31.25;23.25;;;;;0.07;72.39;101467.50;5045744;28;45559;-83
2021/12/22 10:50:40;;;;;;;;;29.00;18.00;;;;;0.05;72.37;101457.06;5045949;28;45479;-82
2021/12/22 10:53:07;;;;;;;;;28.00;22.00;;;;;0.02;72.60;101443.94;5043896;28;45514;-81
2021/12/22 10:55:43;;;;;;;;;26.00;17.25;;;;;0.07;72.33;101426.78;5046159;28;45467;-82
2021/12/22 10:58:29;;;;;;;;;28.50;22.75;;;;;0.08;71.59;101428.56;5046191;28;45434;-82
2021/12/22 11:01:03;;;;;;;;;26.25;19.50;;;;;0.12;71.68;101425.25;5054458;28;45568;-80
2021/12/22 11:03:37;;;;;;;;;30.25;25.00;;;;;0.14;71.61;101427.91;5051375;28;45549;-82
2021/12/22 11:06:10;;;;;;;;;23.75;20.50;;;;;0.13;71.99;101434.81;5050311;28;46376;-82
2021/12/22 11:08:37;;;;;;;;;32.00;27.00;;;;;0.07;71.81;101429.38;5054748;28;45613;-82
2021/12/22 11:11:13;;;;;;;;;33.75;31.00;;;;;0.09;71.87;101421.66;5043991;28;45295;-82
2021/12/22 11:13:39;;;;;;;;;32.00;20.50;;;;;0.14;71.67;101418.38;5042136;28;45667;-82
2021/12/22 11:16:11;;;;;;;;;30.75;19.50;;;;;0.23;71.35;101419.53;5046629;28;45825;-81
2021/12/22 11:18:36;;;;;;;;;31.00;24.75;;;;;0.24;71.36;101426.50;5045395;28;45451;-82
2021/12/22 11:21:31;;;;;;;;;36.75;26.50;;;;;0.15;71.25;101414.97;5046953;28;45497;-83
2021/12/22 11:23:56;;;;;;;;;34.25;29.50;;;;;0.06;71.32;101411.13;5051850;28;45575;-82
2021/12/22 11:26:22;;;;;;;;;28.00;22.00;;;;;0.09;72.04;101409.56;5053576;28;46312;-82
2021/12/22 11:28:48;;;;;;;;;35.00;27.75;;;;;0.04;71.62;101384.22;5047239;28;45396;-83
2021/12/22 11:31:14;;;;;;;;;21.75;11.00;;;;;0.09;71.53;101399.16;5052369;28;45386;-82